Time;durP1;ratioP1;P1;durP2;ratioP2;P2;SDS_P1;SDS_P2;PMS_P1;PMS_P2;Temp;Humidity;BMP_temperature;BMP_pressure;BME280_temperature;BME280_humidity;BME280_pressure;Samples;Min_cycle;Max_cycle;Signal;HPM_P1;HPM_P2
2022/02/18 00:00:01;;;;;;;13.40;10.20;;;;;;;20.41;35.34;99691.43;104357;1308;61384;-80
2022/02/18 00:02:37;;;;;;;12.70;9.80;;;;;;;20.41;35.05;99687.34;104276;1308;73816;-82
2022/02/18 00:05:06;;;;;;;11.60;9.40;;;;;;;20.40;35.03;99685.39;104307;1308;75878;-81
2022/02/18 00:07:37;;;;;;;13.90;10.70;;;;;;;20.41;35.16;99690.73;103993;1313;61241;-81
2022/02/18 00:10:23;;;;;;;13.20;9.90;;;;;;;20.40;35.12;99698.64;104041;1311;61296;-80
2022/02/18 00:12:55;;;;;;;11.90;9.20;;;;;;;20.41;35.05;99693.07;103987;1314;72705;-81
2022/02/18 00:15:27;;;;;;;15.40;10.00;;;;;;;20.40;35.16;99683.98;103990;1312;74759;-81
2022/02/18 00:17:56;;;;;;;13.00;9.70;;;;;;;20.40;35.08;99670.04;104078;1312;61300;-82
2022/02/18 00:20:47;;;;;;;11.50;9.40;;;;;;;20.40;35.03;99668.12;103969;1313;61330;-82
2022/02/18 00:23:15;;;;;;;13.10;9.80;;;;;;;20.40;35.09;99662.59;104078;1311;73707;-82
2022/02/18 00:25:44;;;;;;;12.00;9.50;;;;;;;20.40;35.13;99647.55;104037;1311;75728;-81
2022/02/18 00:28:18;;;;;;;12.60;9.50;;;;;;;20.40;34.99;99649.70;104008;1312;61178;-81
2022/02/18 00:30:57;;;;;;;13.00;9.30;;;;;;;20.40;35.19;99662.73;104196;1311;61540;-80
2022/02/18 00:33:38;;;;;;;14.90;9.80;;;;;;;20.40;35.15;99664.54;104018;1312;72815;-83
2022/02/18 00:36:09;;;;;;;12.50;9.60;;;;;;;20.40;35.17;99660.61;104059;1312;76364;-81
2022/02/18 00:38:55;;;;;;;13.30;9.40;;;;;;;20.40;34.93;99655.60;104219;1309;61540;-82
2022/02/18 00:41:41;;;;;;;14.10;10.30;;;;;;;20.39;35.05;99641.87;104428;1308;61213;-81
2022/02/18 00:44:39;;;;;;;;;;;;;;;;;;;;;
2022/02/18 00:47:05;;;;;;;12.50;9.70;;;;;;;20.40;35.04;99629.88;104400;1308;74263;-80
2022/02/18 00:49:34;;;;;;;11.80;9.30;;;;;;;20.39;35.16;99624.20;104286;1308;61301;-80
2022/02/18 00:52:02;;;;;;;11.60;9.40;;;;;;;20.40;34.99;99620.20;104226;1309;61171;-82
2022/02/18 00:54:34;;;;;;;11.40;9.60;;;;;;;20.40;34.96;99628.45;104067;1314;71698;-84
2022/02/18 00:57:02;;;;;;;11.50;9.30;;;;;;;20.39;34.81;99622.41;104166;1312;76295;-84
2022/02/18 00:59:28;;;;;;;12.10;9.60;;;;;;;20.39;34.96;99644.76;104028;1311;62823;-79
2022/02/18 01:02:00;;;;;;;12.50;9.40;;;;;;;20.39;34.95;99650.48;104190;1311;61339;-81
2022/02/18 01:04:32;;;;;;;14.90;10.00;;;;;;;20.39;35.13;99653.35;104155;1312;73928;-79
2022/02/18 01:06:58;;;;;;;12.70;9.30;;;;;;;20.39;35.04;99655.30;104112;1312;75629;-82
2022/02/18 01:09:32;;;;;;;12.80;9.70;;;;;;;20.39;34.86;99657.48;104112;1312;61281;-80
2022/02/18 01:11:58;;;;;;;12.40;9.00;;;;;;;20.39;34.92;99655.67;104101;1313;61217;-83
2022/02/18 01:14:25;;;;;;;13.30;10.00;;;;;;;20.39;34.88;99664.24;104001;1312;61150;-80
2022/02/18 01:17:01;;;;;;;;;;;;;;;20.39;34.85;99654.23;104020;1312;75772;-81
2022/02/18 01:19:27;;;;;;;12.20;9.60;;;;;;;20.36;34.93;99642.50;104120;1312;61229;-81
2022/02/18 01:22:03;;;;;;;13.10;9.10;;;;;;;20.37;34.83;99627.95;104083;1313;59280;-82
2022/02/18 01:24:31;;;;;;;12.80;9.30;;;;;;;20.37;34.91;99630.65;104244;1311;72892;-84
2022/02/18 01:27:06;;;;;;;13.70;9.80;;;;;;;20.37;34.98;99632.60;104137;1312;75950;-79
2022/02/18 01:29:39;;;;;;;11.40;8.50;;;;;;;20.37;35.01;99641.19;104019;1312;61171;-80
2022/02/18 01:32:12;;;;;;;12.80;9.40;;;;;;;20.38;34.97;99646.16;104183;1308;61553;-81
2022/02/18 01:34:40;;;;;;;11.90;9.30;;;;;;;20.38;34.89;99653.31;104420;1308;73794;-81
2022/02/18 01:37:06;;;;;;;12.30;9.60;;;;;;;20.37;34.90;99654.61;104254;1311;59338;-81
2022/02/18 01:39:52;;;;;;;11.90;8.70;;;;;;;20.37;34.72;99656.90;104307;1309;61292;-80
2022/02/18 01:42:34;;;;;;;11.00;8.70;;;;;;;20.38;34.86;99668.50;104300;1308;61272;-81
2022/02/18 01:45:23;;;;;;;12.30;9.00;;;;;;;20.37;34.75;99671.23;104399;1308;73912;-82
2022/02/18 01:48:09;;;;;;;12.40;8.70;;;;;;;20.37;34.90;99668.92;104088;1313;74993;-84
2022/02/18 01:50:44;;;;;;;11.40;8.70;;;;;;;20.37;34.95;99678.17;104044;1313;61476;-81
2022/02/18 01:53:23;;;;;;;13.40;9.50;;;;;;;20.37;34.78;99684.42;104137;1312;61304;-81
2022/02/18 01:56:20;;;;;;;12.50;9.00;;;;;;;20.37;34.81;99683.73;104123;1312;73788;-84
2022/02/18 01:58:46;;;;;;;11.70;8.90;;;;;;;20.37;34.85;99677.30;104236;1312;75822;-81
2022/02/18 02:01:17;;;;;;;12.60;8.80;;;;;;;20.37;34.70;99686.58;104071;1313;62176;-81
2022/02/18 02:04:08;;;;;;;;;;;;;;;20.37;34.76;99697.33;104086;1312;61199;-83
2022/02/18 02:06:45;;;;;;;12.00;8.60;;;;;;;20.35;34.90;99698.20;104225;1312;72827;-81
2022/02/18 02:09:22;;;;;;;13.10;9.10;;;;;;;20.35;34.84;99682.26;104107;1312;74775;-81
2022/02/18 02:12:08;;;;;;;11.10;8.50;;;;;;;20.36;34.82;99679.92;104114;1312;61179;-81
2022/02/18 02:14:54;;;;;;;10.60;8.80;;;;;;;20.35;34.90;99665.48;104043;1315;62126;-81
2022/02/18 02:18:08;;;;;;;11.60;9.30;;;;;;;20.35;35.01;99661.41;103823;1316;71630;-88
2022/02/18 02:20:49;;;;;;;;;;;;;;;;;;;;;
2022/02/18 02:23:37;;;;;;;10.90;8.10;;;;;;;20.35;34.94;99691.40;103562;1318;61999;-80
2022/02/18 02:26:26;;;;;;;10.30;8.00;;;;;;;20.36;34.80;99697.07;103881;1317;61735;-80
2022/02/18 02:29:06;;;;;;;9.60;8.00;;;;;;;20.35;34.81;99692.64;104107;1313;72809;-81
2022/02/18 02:31:41;;;;;;;11.80;8.70;;;;;;;20.36;34.72;99706.38;103940;1313;74789;-81
2022/02/18 02:34:39;;;;;;;11.80;8.70;;;;;;;20.35;34.73;99719.61;103763;1313;61373;-80
2022/02/18 02:37:28;;;;;;;10.00;7.90;;;;;;;20.36;34.86;99722.10;103924;1315;61644;-81
2022/02/18 02:40:04;;;;;;;11.00;8.30;;;;;;;20.36;34.68;99728.88;103983;1314;73921;-81
2022/02/18 02:42:53;;;;;;;10.80;8.20;;;;;;;20.35;34.78;99726.92;103968;1313;73639;-80
2022/02/18 02:45:31;;;;;;;10.10;8.00;;;;;;;20.36;34.67;99724.21;103877;1314;61383;-80
2022/02/18 02:48:18;;;;;;;10.20;7.60;;;;;;;20.36;34.90;99724.23;103964;1313;62357;-83
2022/02/18 02:50:53;;;;;;;9.90;7.60;;;;;;;20.36;34.74;99731.20;103870;1317;74149;-81
2022/02/18 02:53:29;;;;;;;11.30;8.00;;;;;;;20.36;34.97;99724.06;104022;1313;74813;-80
2022/02/18 02:56:07;;;;;;;10.60;8.00;;;;;;;20.35;34.83;99711.73;104336;1309;61220;-81
2022/02/18 02:58:40;;;;;;;10.80;8.30;;;;;;;20.35;34.78;99711.73;104264;1309;61899;-83
2022/02/18 03:01:30;;;;;;;9.30;7.20;;;;;;;20.35;34.83;99712.64;104309;1309;72774;-82
2022/02/18 03:04:01;;;;;;;10.90;8.00;;;;;;;20.35;34.72;99711.98;104302;1307;75833;-81
2022/02/18 03:06:32;;;;;;;9.80;7.20;;;;;;;20.35;34.86;99713.39;104303;1309;61403;-81
2022/02/18 03:09:18;;;;;;;9.70;7.40;;;;;;;20.35;34.81;99713.06;104301;1309;61806;-81
2022/02/18 03:11:53;;;;;;;9.60;7.30;;;;;;;20.35;34.78;99727.90;104395;1309;72688;-82
2022/02/18 03:14:25;;;;;;;9.50;7.30;;;;;;;20.34;34.72;99726.65;104433;1308;74645;-81
2022/02/18 03:17:02;;;;;;;9.50;7.20;;;;;;;20.35;34.69;99718.79;104340;1309;61299;-82
2022/02/18 03:19:45;;;;;;;9.00;6.90;;;;;;;20.34;34.71;99717.44;104362;1308;61929;-83
2022/02/18 03:22:19;;;;;;;9.60;6.80;;;;;;;20.34;34.79;99720.27;104338;1309;61407;-80
2022/02/18 03:25:05;;;;;;;9.30;6.60;;;;;;;20.34;34.60;99725.08;104315;1309;74745;-81
2022/02/18 03:27:51;;;;;;;9.00;6.90;;;;;;;20.34;34.65;99731.35;104235;1309;61199;-81
2022/02/18 03:30:17;;;;;;;8.50;6.30;;;;;;;20.34;34.61;99739.21;104311;1309;61378;-81
2022/02/18 03:33:08;;;;;;;9.90;7.00;;;;;;;20.34;34.61;99743.90;104386;1309;71478;-80
2022/02/18 03:35:34;;;;;;;8.50;6.40;;;;;;;20.34;34.76;99754.96;104478;1308;74649;-82
2022/02/18 03:38:06;;;;;;;10.30;6.80;;;;;;;20.34;34.67;99762.63;104313;1307;61959;-82
2022/02/18 03:40:52;;;;;;;10.00;7.00;;;;;;;20.34;34.79;99764.97;104323;1307;61535;-81
2022/02/18 03:43:26;;;;;;;9.30;6.50;;;;;;;20.34;34.58;99776.02;104371;1308;72900;-81
2022/02/18 03:46:18;;;;;;;8.60;6.50;;;;;;;20.34;34.64;99783.55;104247;1307;74775;-83
2022/02/18 03:48:56;;;;;;;9.00;6.40;;;;;;;20.34;34.65;99799.11;104330;1309;61439;-84
2022/02/18 03:51:24;;;;;;;9.10;6.50;;;;;;;20.33;34.37;99812.34;104197;1309;61347;-77
2022/02/18 03:54:05;;;;;;;;;;;;;;;;;;;;;
2022/02/18 03:56:39;;;;;;;9.30;6.10;;;;;;;20.33;34.53;99833.27;104459;1309;75603;-85
2022/02/18 03:59:16;;;;;;;9.30;6.00;;;;;;;20.33;34.48;99844.16;104402;1309;61545;-80
2022/02/18 04:01:49;;;;;;;9.40;6.40;;;;;;;20.33;34.47;99853.13;104305;1309;61774;-81
2022/02/18 04:04:15;;;;;;;8.40;6.30;;;;;;;20.33;34.54;99860.41;104408;1309;73736;-81
2022/02/18 04:06:52;;;;;;;;;;;;;;;;;;;;;
2022/02/18 04:09:21;;;;;;;7.70;6.10;;;;;;;20.33;34.39;99879.95;104331;1309;61436;-81
2022/02/18 04:11:48;;;;;;;;;;;;;;;20.33;34.51;99886.34;104401;1309;61304;-80
2022/02/18 04:14:17;;;;;;;8.50;5.70;;;;;;;20.31;34.56;99889.76;104339;1309;73019;-81
2022/02/18 04:17:05;;;;;;;;;;;;;;;;;;;;;
2022/02/18 04:19:43;;;;;;;8.60;5.80;;;;;;;20.31;34.37;99885.98;104393;1309;62016;-80
2022/02/18 04:22:09;;;;;;;8.50;5.70;;;;;;;20.30;34.16;99892.65;104361;1309;61399;-81
2022/02/18 04:24:48;;;;;;;9.00;5.50;;;;;;;20.30;34.28;99894.09;104344;1309;61484;-82
2022/02/18 04:27:15;;;;;;;7.60;5.00;;;;;;;20.31;34.19;99901.74;104393;1309;75069;-81
2022/02/18 04:29:58;;;;;;;;;;;;;;;;;;;;;
2022/02/18 04:32:33;;;;;;;8.20;5.20;;;;;;;20.30;34.03;99913.56;104287;1309;61636;-81
2022/02/18 04:35:13;;;;;;;;;;;;;;;;;;;;;
2022/02/18 04:37:48;;;;;;;7.90;5.20;;;;;;;20.29;33.77;99906.66;103720;1310;75521;-81
2022/02/18 04:40:15;;;;;;;7.60;4.90;;;;;;;20.29;33.76;99913.08;104333;1309;61282;-81
2022/02/18 04:43:12;;;;;;;;;;;;;;;;;;;;;
2022/02/18 04:45:51;;;;;;;8.10;5.30;;;;;;;20.29;33.65;99919.03;104247;1309;74181;-82
2022/02/18 04:48:23;;;;;;;9.50;5.20;;;;;;;20.28;33.78;99928.19;104333;1309;74865;-80
2022/02/18 04:51:21;;;;;;;8.50;4.90;;;;;;;20.28;33.66;99937.67;104264;1309;61301;-80
2022/02/18 04:53:58;;;;;;;;;;;;;;;;;;;;;
2022/02/18 04:56:39;;;;;;;;;;;;;;;;;;;;;
2022/02/18 04:59:28;;;;;;;6.30;4.40;;;;;;;20.27;33.46;99944.34;104366;1309;75146;-80
2022/02/18 05:02:13;;;;;;;;;;;;;;;;;;;;;
2022/02/18 05:04:42;;;;;;;7.70;4.80;;;;;;;20.26;33.31;99951.03;104350;1309;61267;-80
2022/02/18 05:07:36;;;;;;;8.80;5.10;;;;;;;20.27;33.23;99956.52;104358;1309;71697;-81
2022/02/18 05:10:24;;;;;;;8.30;4.40;;;;;;;20.26;33.24;99967.30;104332;1309;75715;-84
2022/02/18 05:13:03;;;;;;;7.30;4.50;;;;;;;20.25;33.16;99974.69;104221;1311;62479;-87
2022/02/18 05:15:34;;;;;;;7.40;4.60;;;;;;;20.26;33.14;99985.15;104155;1311;63433;-81
2022/02/18 05:18:12;;;;;;;7.30;4.90;;;;;;;20.26;33.09;99992.52;104007;1312;74136;-80
2022/02/18 05:20:50;;;;;;;8.90;4.50;;;;;;;20.25;33.02;100006.11;104080;1311;75624;-79
2022/02/18 05:23:19;;;;;;;8.30;4.30;;;;;;;20.25;32.99;100017.23;104044;1312;61215;-80
2022/02/18 05:26:18;;;;;;;;;;;;;;;;;;;;;
2022/02/18 05:28:51;;;;;;;6.50;4.10;;;;;;;20.23;33.03;100035.08;103388;1317;73955;-83
2022/02/18 05:31:51;;;;;;;6.50;4.30;;;;;;;20.22;32.61;100042.84;103476;1317;76008;-81
2022/02/18 05:34:16;;;;;;;6.70;3.90;;;;;;;20.20;32.69;100051.94;103540;1317;61233;-81
2022/02/18 05:36:47;;;;;;;8.80;3.90;;;;;;;20.15;32.32;100061.10;103522;1317;61322;-80
2022/02/18 05:39:26;;;;;;;6.50;4.10;;;;;;;20.10;32.23;100064.14;103400;1317;72752;-81
2022/02/18 05:41:56;;;;;;;8.40;3.70;;;;;;;20.06;32.15;100067.11;103305;1319;74560;-82
2022/02/18 05:44:36;;;;;;;5.70;3.20;;;;;;;20.03;31.87;100073.66;103254;1317;61418;-83
2022/02/18 05:47:10;;;;;;;13.00;3.50;;;;;;;20.02;31.72;100084.11;103577;1317;61678;-81
2022/02/18 05:49:39;;;;;;;7.00;3.70;;;;;;;20.00;31.45;100088.91;103480;1313;73043;-80
2022/02/18 05:52:05;;;;;;;10.10;3.60;;;;;;;19.96;31.03;100097.27;103621;1314;73169;-78
2022/02/18 05:54:32;;;;;;;9.40;3.60;;;;;;;19.89;30.89;100108.15;103534;1313;61470;-80
2022/02/18 05:57:09;;;;;;;9.00;3.80;;;;;;;19.80;30.70;100117.76;103573;1313;61153;-80
2022/02/18 05:59:35;;;;;;;7.70;3.50;;;;;;;19.73;30.56;100124.10;103617;1313;74102;-79
2022/02/18 06:02:00;;;;;;;13.10;3.60;;;;;;;19.70;30.35;100134.68;103743;1313;61000;-79
2022/02/18 06:04:26;;;;;;;10.80;3.30;;;;;;;19.68;30.33;100141.98;103948;1308;59663;-79
2022/02/18 06:06:52;;;;;;;9.40;3.10;;;;;;;19.70;30.17;100147.39;104050;1309;61291;-79
2022/02/18 06:09:17;;;;;;;11.30;3.30;;;;;;;19.73;30.22;100156.95;104009;1309;61492;-78
2022/02/18 06:11:43;;;;;;;4.60;2.50;;;;;;;19.78;30.06;100166.96;104089;1309;59588;-80
2022/02/18 06:14:09;;;;;;;6.60;2.90;;;;;;;19.83;30.18;100173.02;103927;1309;74767;-78
2022/02/18 06:16:35;;;;;;;7.70;2.80;;;;;;;19.90;30.10;100172.48;104040;1306;59993;-78
2022/02/18 06:19:03;;;;;;;6.40;3.00;;;;;;;19.95;30.09;100177.86;104034;1308;61650;-79
2022/02/18 06:21:30;;;;;;;7.10;2.70;;;;;;;20.01;30.08;100182.05;103914;1309;73336;-82
2022/02/18 06:23:57;;;;;;;7.30;2.90;;;;;;;20.06;30.03;100190.58;105017;1307;75805;-78
2022/02/18 06:26:22;;;;;;;6.90;2.60;;;;;;;20.12;29.99;100196.91;105041;1309;59582;-78
2022/02/18 06:28:47;;;;;;;7.10;3.10;;;;;;;20.17;29.97;100201.14;105222;1307;59816;-78
2022/02/18 06:31:13;;;;;;;8.60;3.10;;;;;;;20.24;29.93;100206.51;104767;1306;59793;-78
2022/02/18 06:33:40;;;;;;;6.70;2.80;;;;;;;20.30;30.20;100209.11;104021;1306;61313;-79
2022/02/18 06:36:11;;;;;;;7.30;2.70;;;;;;;20.36;30.04;100211.36;104186;1306;60237;-78
2022/02/18 06:38:36;;;;;;;7.20;2.90;;;;;;;20.40;29.98;100211.05;104012;1309;61215;-79
2022/02/18 06:41:02;;;;;;;6.70;2.80;;;;;;;20.44;30.03;100217.35;103915;1309;61255;-79
2022/02/18 06:43:28;;;;;;;6.20;2.90;;;;;;;20.48;30.15;100220.42;103979;1309;61326;-79
2022/02/18 06:45:54;;;;;;;5.70;2.60;;;;;;;20.51;29.92;100222.55;104007;1306;61509;-79
2022/02/18 06:48:25;;;;;;;5.00;2.90;;;;;;;20.53;30.06;100230.91;103996;1309;61092;-79
2022/02/18 06:50:51;;;;;;;6.90;2.80;;;;;;;20.56;30.14;100237.35;104262;1306;74011;-81
2022/02/18 06:53:17;;;;;;;7.20;2.60;;;;;;;20.56;30.08;100237.45;104250;1308;61298;-82
2022/02/18 06:55:42;;;;;;;5.30;2.50;;;;;;;20.51;29.91;100239.16;104226;1309;59775;-81
2022/02/18 06:58:09;;;;;;;10.20;2.80;;;;;;;20.45;29.90;100243.70;104322;1309;61301;-82
2022/02/18 07:00:36;;;;;;;6.20;2.50;;;;;;;20.37;29.71;100244.31;104362;1308;61348;-80
2022/02/18 07:03:03;;;;;;;7.20;2.70;;;;;;;20.30;29.71;100243.08;104344;1309;60750;-80
2022/02/18 07:05:29;;;;;;;8.50;2.80;;;;;;;20.27;29.83;100251.37;104282;1308;61183;-80
2022/02/18 07:07:54;;;;;;;5.70;2.60;;;;;;;20.24;29.83;100250.44;104261;1306;59842;-80
2022/02/18 07:10:20;;;;;;;6.30;2.30;;;;;;;20.24;29.83;100255.70;104344;1308;61480;-81
2022/02/18 07:12:45;;;;;;;4.80;2.40;;;;;;;20.24;29.74;100263.19;104378;1309;59654;-79
2022/02/18 07:15:11;;;;;;;8.50;2.40;;;;;;;20.24;29.84;100267.13;104067;1308;74067;-81
2022/02/18 07:17:37;;;;;;;6.80;2.40;;;;;;;20.24;29.71;100272.30;104210;1306;61399;-79
2022/02/18 07:20:04;;;;;;;4.50;2.20;;;;;;;20.23;29.63;100271.98;104191;1309;61294;-79
2022/02/18 07:22:29;;;;;;;5.40;2.20;;;;;;;20.24;29.50;100273.39;104775;1308;59292;-79
2022/02/18 07:24:55;;;;;;;4.70;2.00;;;;;;;20.24;29.57;100275.52;104021;1309;61528;-79
2022/02/18 07:27:29;;;;;;;5.10;2.30;;;;;;;20.25;29.32;100283.12;104060;1308;61304;-79
2022/02/18 07:29:55;;;;;;;5.60;2.10;;;;;;;20.25;29.43;100276.10;104155;1306;61348;-79
2022/02/18 07:32:24;;;;;;;4.40;2.00;;;;;;;20.26;29.31;100275.55;104013;1309;61361;-81
2022/02/18 07:34:50;;;;;;;4.10;2.10;;;;;;;20.27;29.36;100275.14;104281;1306;77202;-80
2022/02/18 07:37:18;;;;;;;4.40;2.00;;;;;;;20.26;29.17;100280.86;104175;1309;61413;-80
2022/02/18 07:39:46;;;;;;;4.40;2.00;;;;;;;20.27;29.17;100287.27;104119;1308;60579;-80
2022/02/18 07:42:14;;;;;;;5.20;1.80;;;;;;;20.28;29.15;100281.11;104350;1307;75105;-82
2022/02/18 07:44:48;;;;;;;3.70;1.90;;;;;;;20.29;29.10;100290.91;104478;1306;74595;-78
2022/02/18 07:47:16;;;;;;;4.90;1.70;;;;;;;20.29;29.04;100292.66;104055;1306;61244;-81
2022/02/18 07:49:43;;;;;;;5.30;2.10;;;;;;;20.30;29.00;100298.71;104079;1309;61337;-80
2022/02/18 07:52:09;;;;;;;5.80;2.30;;;;;;;20.29;28.90;100306.94;104046;1308;72764;-79
2022/02/18 07:54:35;;;;;;;6.80;2.50;;;;;;;20.26;28.69;100313.41;103866;1308;62619;-80
2022/02/18 07:57:00;;;;;;;8.10;2.00;;;;;;;20.20;28.62;100321.90;103996;1309;59677;-79
2022/02/18 07:59:26;;;;;;;4.60;2.10;;;;;;;20.14;28.65;100329.55;104117;1308;61339;-79
2022/02/18 08:01:52;;;;;;;9.10;2.10;;;;;;;20.13;28.85;100327.45;104084;1308;60071;-79
2022/02/18 08:04:17;;;;;;;6.20;1.90;;;;;;;20.10;29.04;100331.96;104099;1308;61273;-81
2022/02/18 08:06:52;;;;;;;8.30;1.90;;;;;;;20.06;29.03;100337.40;103949;1308;61411;-80
2022/02/18 08:09:20;;;;;;;4.30;2.00;;;;;;;20.07;29.15;100332.28;103848;1308;60189;-80
2022/02/18 08:11:45;;;;;;;8.00;2.00;;;;;;;20.13;29.18;100337.30;104121;1306;61180;-79
2022/02/18 08:14:11;;;;;;;8.00;1.90;;;;;;;20.17;29.18;100337.33;104058;1308;61368;-79
2022/02/18 08:16:37;;;;;;;10.60;2.20;;;;;;;20.22;29.37;100343.36;103956;1308;61426;-79
2022/02/18 08:19:03;;;;;;;5.10;2.10;;;;;;;20.27;29.39;100347.85;104077;1308;59721;-79
2022/02/18 08:21:34;;;;;;;6.40;2.20;;;;;;;20.32;29.51;100345.33;104099;1308;61512;-79
2022/02/18 08:23:59;;;;;;;9.90;2.40;;;;;;;20.36;29.67;100348.77;103997;1306;72774;-81
2022/02/18 08:26:25;;;;;;;6.30;2.00;;;;;;;20.40;29.61;100354.02;103909;1309;61300;-79
2022/02/18 08:28:51;;;;;;;9.10;2.00;;;;;;;20.43;29.75;100350.71;104007;1308;61391;-79
2022/02/18 08:31:16;;;;;;;7.30;2.00;;;;;;;20.47;29.87;100354.89;104018;1308;60080;-80
2022/02/18 08:33:43;;;;;;;6.70;1.80;;;;;;;20.51;30.05;100349.64;104019;1309;61205;-79
2022/02/18 08:36:10;;;;;;;4.80;2.10;;;;;;;20.53;30.21;100353.02;104349;1308;61292;-79
2022/02/18 08:38:35;;;;;;;6.60;2.00;;;;;;;20.57;30.10;100357.89;104904;1308;59331;-80
2022/02/18 08:41:01;;;;;;;8.10;2.00;;;;;;;20.60;30.22;100362.30;104057;1306;61282;-79
2022/02/18 08:43:30;;;;;;;5.40;1.60;;;;;;;20.64;30.32;100360.09;103994;1309;62288;-79
2022/02/18 08:46:17;;;;;;;12.00;2.10;;;;;;;20.66;30.31;100363.29;104091;1306;71845;-81
2022/02/18 08:48:42;;;;;;;10.40;2.10;;;;;;;20.68;30.51;100360.16;104085;1308;61323;-79
2022/02/18 08:51:08;;;;;;;6.90;1.80;;;;;;;20.69;30.29;100354.85;104032;1309;59625;-79
2022/02/18 08:53:34;;;;;;;6.90;1.70;;;;;;;20.70;30.55;100359.83;104084;1309;61281;-81
2022/02/18 08:55:59;;;;;;;9.00;1.50;;;;;;;20.64;30.17;100363.14;103898;1308;61265;-79
2022/02/18 08:58:34;;;;;;;5.90;1.30;;;;;;;20.56;30.24;100356.00;104037;1307;61309;-79
2022/02/18 09:00:59;;;;;;;12.00;1.80;;;;;;;20.42;29.70;100360.13;105048;1306;75248;-79
2022/02/18 09:03:25;;;;;;;7.50;1.60;;;;;;;20.30;29.57;100368.67;105074;1308;59480;-80
2022/02/18 09:05:51;;;;;;;10.20;1.90;;;;;;;20.25;29.45;100379.07;104192;1306;62291;-79
2022/02/18 09:08:16;;;;;;;8.80;2.30;;;;;;;20.25;29.72;100378.55;104042;1309;61333;-79
2022/02/18 09:10:44;;;;;;;8.80;1.60;;;;;;;20.29;29.69;100379.70;104122;1306;61279;-77
2022/02/18 09:13:11;;;;;;;7.70;2.00;;;;;;;20.32;29.92;100394.06;104071;1309;61320;-79
2022/02/18 09:15:36;;;;;;;7.40;1.60;;;;;;;20.36;30.11;100386.97;104079;1308;61320;-79
2022/02/18 09:18:02;;;;;;;8.00;1.50;;;;;;;20.41;30.05;100393.46;104115;1306;60027;-79
2022/02/18 09:20:28;;;;;;;7.00;2.20;;;;;;;20.44;30.12;100404.83;103945;1309;60192;-79
2022/02/18 09:22:53;;;;;;;7.80;1.70;;;;;;;20.47;30.20;100405.13;103685;1311;74850;-79
2022/02/18 09:25:22;;;;;;;9.10;1.80;;;;;;;20.50;30.12;100399.39;103670;1311;61905;-78
2022/02/18 09:28:05;;;;;;;8.10;1.90;;;;;;;20.53;30.24;100400.44;103484;1311;61296;-79
2022/02/18 09:30:31;;;;;;;10.20;1.70;;;;;;;20.55;30.24;100412.38;103429;1311;61333;-79
2022/02/18 09:33:00;;;;;;;7.00;1.80;;;;;;;20.58;30.11;100413.78;103804;1311;61330;-80
2022/02/18 09:35:25;;;;;;;6.40;1.70;;;;;;;20.59;30.26;100415.47;104173;1311;61468;-80
2022/02/18 09:37:58;;;;;;;4.70;1.40;;;;;;;20.59;30.14;100419.03;103481;1311;61383;-80
2022/02/18 09:40:28;;;;;;;4.30;1.90;;;;;;;20.57;29.62;100420.61;104010;1311;73259;-80
2022/02/18 09:42:58;;;;;;;5.80;1.60;;;;;;;20.56;29.51;100430.73;103897;1311;74821;-79
2022/02/18 09:45:24;;;;;;;5.00;1.60;;;;;;;20.56;29.56;100437.73;104093;1309;61152;-79
2022/02/18 09:47:50;;;;;;;16.40;2.10;;;;;;;20.56;29.44;100439.13;104113;1309;61236;-80
2022/02/18 09:50:34;;;;;;;14.90;2.00;;;;;;;20.54;29.81;100440.74;103975;1309;72911;-82
2022/02/18 09:53:03;;;;;;;12.40;1.60;;;;;;;20.50;30.09;100450.30;103940;1311;74616;-80
2022/02/18 09:55:48;;;;;;;6.40;1.70;;;;;;;20.37;29.47;100444.45;103881;1312;61089;-80
2022/02/18 09:58:35;;;;;;;12.20;1.90;;;;;;;20.22;29.16;100446.80;103977;1310;61292;-80
2022/02/18 10:01:20;;;;;;;11.20;1.90;;;;;;;20.21;29.03;100448.02;103905;1311;73618;-79
2022/02/18 10:03:46;;;;;;;22.30;2.40;;;;;;;20.21;29.05;100452.46;103816;1309;61303;-80
2022/02/18 10:06:12;;;;;;;9.40;1.90;;;;;;;20.16;29.04;100457.30;103798;1311;59860;-79
2022/02/18 10:08:58;;;;;;;11.80;1.70;;;;;;;20.17;29.19;100458.45;103538;1311;60280;-78
2022/02/18 10:11:33;;;;;;;15.10;2.00;;;;;;;20.20;29.04;100458.39;104129;1309;72841;-80
2022/02/18 10:14:02;;;;;;;22.50;2.60;;;;;;;20.24;29.18;100464.58;103865;1311;354433;-79
2022/02/18 10:16:28;;;;;;;16.90;2.30;;;;;;;20.27;29.42;100462.93;103936;1312;61480;-78
2022/02/18 10:19:12;;;;;;;21.20;2.30;;;;;;;20.32;29.81;100469.75;104030;1311;59238;-79
2022/02/18 10:21:38;;;;;;;17.00;2.10;;;;;;;20.35;30.19;100464.34;105003;1311;73876;-80
2022/02/18 10:24:16;;;;;;;15.30;1.90;;;;;;;20.37;30.62;100461.98;104921;1311;59273;-79
2022/02/18 10:26:46;;;;;;;8.10;1.80;;;;;;;20.40;30.69;100464.83;104534;1310;61366;-79
2022/02/18 10:29:22;;;;;;;8.50;1.70;;;;;;;20.42;30.79;100463.25;103972;1310;60763;-79
2022/02/18 10:32:16;;;;;;;13.40;2.20;;;;;;;20.46;30.93;100472.48;104147;1311;74598;-79
2022/02/18 10:34:55;;;;;;;18.10;2.40;;;;;;;20.49;31.23;100464.36;104035;1312;73491;-78
2022/02/18 10:37:27;;;;;;;8.90;2.00;;;;;;;20.50;31.03;100462.16;103970;1311;61264;-79
2022/02/18 10:40:10;;;;;;;14.30;2.10;;;;;;;20.51;31.21;100471.01;104985;1309;61079;-79
2022/02/18 10:42:40;;;;;;;13.10;2.20;;;;;;;20.53;31.26;100465.31;104544;1308;72769;-80
2022/02/18 10:45:27;;;;;;;13.30;2.40;;;;;;;20.56;31.45;100468.83;104973;1309;59849;-79
2022/02/18 10:48:06;;;;;;;11.00;2.00;;;;;;;20.60;31.68;100462.45;104398;1311;61153;-79
2022/02/18 10:50:32;;;;;;;;;;;;;;;20.63;31.73;100460.24;105094;1308;60693;-80
2022/02/18 10:53:19;;;;;;;16.60;1.90;;;;;;;20.63;31.48;100467.27;104175;1309;61259;-79
2022/02/18 10:55:59;;;;;;;8.30;1.50;;;;;;;20.56;31.00;100468.66;104343;1308;75636;-80
2022/02/18 10:58:28;;;;;;;9.30;2.00;;;;;;;20.47;30.68;100474.20;103978;1309;62267;-81
2022/02/18 11:01:07;;;;;;;13.80;1.60;;;;;;;20.44;30.70;100470.76;105064;1309;60255;-80
2022/02/18 11:03:33;;;;;;;9.80;1.90;;;;;;;20.37;30.35;100475.58;104501;1309;74026;-79
2022/02/18 11:06:22;;;;;;;4.50;1.30;;;;;;;20.28;30.16;100475.33;103984;1309;61718;-80
2022/02/18 11:08:53;;;;;;;7.70;1.60;;;;;;;20.15;29.54;100470.55;103844;1308;61301;-79
2022/02/18 11:11:19;;;;;;;10.00;1.60;;;;;;;20.05;29.30;100481.65;105296;1308;60047;-79
2022/02/18 11:13:45;;;;;;;8.00;1.50;;;;;;;20.08;29.30;100472.85;104542;1308;59615;-80
2022/02/18 11:16:17;;;;;;;9.10;1.50;;;;;;;20.14;29.28;100466.37;103952;1309;61235;-80
2022/02/18 11:18:46;;;;;;;11.00;1.50;;;;;;;20.20;29.17;100465.08;104735;1309;61433;-81
2022/02/18 11:21:20;;;;;;;6.60;1.40;;;;;;;20.25;29.10;100469.32;103898;1309;61609;-79
2022/02/18 11:23:48;;;;;;;5.20;1.60;;;;;;;20.26;28.97;100472.08;104961;1309;73342;-81
2022/02/18 11:26:21;;;;;;;7.50;1.30;;;;;;;20.30;28.95;100468.60;104132;1308;75671;-80
2022/02/18 11:28:48;;;;;;;9.00;1.60;;;;;;;20.32;28.73;100473.61;103942;1308;61200;-80
2022/02/18 11:31:29;;;;;;;6.60;1.50;;;;;;;20.32;28.65;100477.23;104708;1308;61414;-80
2022/02/18 11:34:24;;;;;;;4.80;1.40;;;;;;;20.32;28.45;100478.83;103917;1308;74189;-80
2022/02/18 11:37:03;;;;;;;5.50;1.40;;;;;;;20.33;28.40;100471.98;104143;1309;75764;-79
2022/02/18 11:39:47;;;;;;;;;;;;;;;20.33;28.30;100474.80;104124;1308;61186;-80
2022/02/18 11:42:39;;;;;;;7.80;1.50;;;;;;;20.28;28.36;100474.64;104127;1308;61369;-80
2022/02/18 11:45:13;;;;;;;7.50;1.60;;;;;;;20.28;28.25;100466.94;105199;1308;73813;-80
2022/02/18 11:47:38;;;;;;;8.50;1.60;;;;;;;20.31;28.35;100472.11;104889;1308;75974;-79
2022/02/18 11:50:12;;;;;;;7.40;1.70;;;;;;;20.31;27.93;100468.89;104912;1308;60440;-80
2022/02/18 11:52:43;;;;;;;7.80;1.70;;;;;;;20.27;27.95;100463.42;104737;1308;61525;-80
2022/02/18 11:55:29;;;;;;;6.30;1.70;;;;;;;20.27;27.88;100474.36;104879;1309;73662;-80
2022/02/18 11:57:56;;;;;;;4.50;1.40;;;;;;;20.27;27.76;100472.20;104838;1309;75708;-80
2022/02/18 12:00:36;;;;;;;7.00;1.60;;;;;;;20.27;27.81;100473.80;104812;1308;60327;-79
2022/02/18 12:03:12;;;;;;;4.00;1.50;;;;;;;20.30;27.92;100476.70;104924;1309;60464;-80